sensor_id;sensor_type;location;lat;lon;timestamp;temperature;humidity
17879;DHT22;9065;51.050;13.758;2022-11-09T00:00:42;11.90;99.90
17879;DHT22;9065;51.050;13.758;2022-11-09T00:03:09;11.90;99.90
17879;DHT22;9065;51.050;13.758;2022-11-09T00:05:38;11.90;99.90
17879;DHT22;9065;51.050;13.758;2022-11-09T00:08:06;11.90;99.90
17879;DHT22;9065;51.050;13.758;2022-11-09T00:10:37;11.80;99.90
17879;DHT22;9065;51.050;13.758;2022-11-09T00:13:04;11.90;99.90
17879;DHT22;9065;51.050;13.758;2022-11-09T00:15:31;11.80;99.90
17879;DHT22;9065;51.050;13.758;2022-11-09T00:18:03;11.80;99.90
17879;DHT22;9065;51.050;13.758;2022-11-09T00:20:30;11.80;99.90
17879;DHT22;9065;51.050;13.758;2022-11-09T00:22:57;11.80;99.90
17879;DHT22;9065;51.050;13.758;2022-11-09T00:25:24;11.70;99.90
17879;DHT22;9065;51.050;13.758;2022-11-09T00:27:53;11.70;99.90
17879;DHT22;9065;51.050;13.758;2022-11-09T00:30:20;11.80;99.90
17879;DHT22;9065;51.050;13.758;2022-11-09T00:32:46;11.70;99.90
17879;DHT22;9065;51.050;13.758;2022-11-09T00:35:14;11.70;99.90
17879;DHT22;9065;51.050;13.758;2022-11-09T00:37:40;11.70;99.90
17879;DHT22;9065;51.050;13.758;2022-11-09T00:40:15;11.60;99.90
17879;DHT22;9065;51.050;13.758;2022-11-09T00:42:42;11.60;99.90
17879;DHT22;9065;51.050;13.758;2022-11-09T00:45:17;11.60;99.90
17879;DHT22;9065;51.050;13.758;2022-11-09T00:47:44;11.50;99.90
17879;DHT22;9065;51.050;13.758;2022-11-09T00:50:11;11.40;99.90
17879;DHT22;9065;51.050;13.758;2022-11-09T00:52:38;11.30;99.90
17879;DHT22;9065;51.050;13.758;2022-11-09T00:55:05;11.30;99.90
17879;DHT22;9065;51.050;13.758;2022-11-09T00:57:32;11.30;99.90
17879;DHT22;9065;51.050;13.758;2022-11-09T00:59:59;11.20;99.90
17879;DHT22;9065;51.050;13.758;2022-11-09T01:02:27;11.20;99.90
17879;DHT22;9065;51.050;13.758;2022-11-09T01:04:55;11.10;99.90
17879;DHT22;9065;51.050;13.758;2022-11-09T01:07:23;11.10;99.90
17879;DHT22;9065;51.050;13.758;2022-11-09T01:09:50;11.10;99.90
17879;DHT22;9065;51.050;13.758;2022-11-09T01:12:17;11.10;99.90
17879;DHT22;9065;51.050;13.758;2022-11-09T01:14:45;11.00;99.90
17879;DHT22;9065;51.050;13.758;2022-11-09T01:17:17;11.00;99.90
17879;DHT22;9065;51.050;13.758;2022-11-09T01:19:46;11.00;99.90
17879;DHT22;9065;51.050;13.758;2022-11-09T01:22:13;11.00;99.90
17879;DHT22;9065;51.050;13.758;2022-11-09T01:24:39;10.90;99.90
17879;DHT22;9065;51.050;13.758;2022-11-09T01:27:06;10.80;99.90
17879;DHT22;9065;51.050;13.758;2022-11-09T01:29:33;10.90;99.90
17879;DHT22;9065;51.050;13.758;2022-11-09T01:32:07;10.80;99.90
17879;DHT22;9065;51.050;13.758;2022-11-09T01:34:34;10.80;99.90
17879;DHT22;9065;51.050;13.758;2022-11-09T01:37:02;10.80;99.90
17879;DHT22;9065;51.050;13.758;2022-11-09T01:39:28;10.80;99.90
17879;DHT22;9065;51.050;13.758;2022-11-09T01:41:55;10.80;99.90
17879;DHT22;9065;51.050;13.758;2022-11-09T01:44:24;10.80;99.90
17879;DHT22;9065;51.050;13.758;2022-11-09T01:46:55;10.80;99.90
17879;DHT22;9065;51.050;13.758;2022-11-09T01:49:33;10.80;99.90
17879;DHT22;9065;51.050;13.758;2022-11-09T01:52:09;10.80;99.90
17879;DHT22;9065;51.050;13.758;2022-11-09T01:54:41;10.80;99.90
17879;DHT22;9065;51.050;13.758;2022-11-09T01:57:12;10.80;99.90
17879;DHT22;9065;51.050;13.758;2022-11-09T01:59:44;10.80;99.90
17879;DHT22;9065;51.050;13.758;2022-11-09T02:02:13;10.80;99.90
17879;DHT22;9065;51.050;13.758;2022-11-09T02:04:44;10.80;99.90
17879;DHT22;9065;51.050;13.758;2022-11-09T02:07:16;10.80;99.90
17879;DHT22;9065;51.050;13.758;2022-11-09T02:09:48;10.80;99.90
17879;DHT22;9065;51.050;13.758;2022-11-09T02:12:17;10.80;99.90
17879;DHT22;9065;51.050;13.758;2022-11-09T02:14:46;10.70;99.90
17879;DHT22;9065;51.050;13.758;2022-11-09T02:17:15;10.80;99.90
17879;DHT22;9065;51.050;13.758;2022-11-09T02:19:43;10.70;99.90
17879;DHT22;9065;51.050;13.758;2022-11-09T02:22:13;10.70;99.90
17879;DHT22;9065;51.050;13.758;2022-11-09T02:24:40;10.70;99.90
17879;DHT22;9065;51.050;13.758;2022-11-09T02:27:07;10.70;99.90
17879;DHT22;9065;51.050;13.758;2022-11-09T02:29:35;10.60;99.90
17879;DHT22;9065;51.050;13.758;2022-11-09T02:32:10;10.70;99.90
17879;DHT22;9065;51.050;13.758;2022-11-09T02:34:38;10.60;99.90
17879;DHT22;9065;51.050;13.758;2022-11-09T02:37:05;10.60;99.90
17879;DHT22;9065;51.050;13.758;2022-11-09T02:39:34;10.50;99.90
17879;DHT22;9065;51.050;13.758;2022-11-09T02:42:04;10.50;99.90
17879;DHT22;9065;51.050;13.758;2022-11-09T02:44:35;10.60;99.90
17879;DHT22;9065;51.050;13.758;2022-11-09T02:47:03;10.60;99.90
17879;DHT22;9065;51.050;13.758;2022-11-09T02:49:32;10.60;99.90
17879;DHT22;9065;51.050;13.758;2022-11-09T02:52:01;10.50;99.90
17879;DHT22;9065;51.050;13.758;2022-11-09T02:54:29;10.50;99.90
17879;DHT22;9065;51.050;13.758;2022-11-09T02:56:57;10.50;99.90
17879;DHT22;9065;51.050;13.758;2022-11-09T02:59:24;10.50;99.90
17879;DHT22;9065;51.050;13.758;2022-11-09T03:01:52;10.50;99.90
17879;DHT22;9065;51.050;13.758;2022-11-09T03:04:19;10.40;99.90
17879;DHT22;9065;51.050;13.758;2022-11-09T03:06:47;10.50;99.90
17879;DHT22;9065;51.050;13.758;2022-11-09T03:09:15;10.50;99.90
17879;DHT22;9065;51.050;13.758;2022-11-09T03:11:42;10.40;99.90
17879;DHT22;9065;51.050;13.758;2022-11-09T03:14:11;10.40;99.90
17879;DHT22;9065;51.050;13.758;2022-11-09T03:16:39;10.40;99.90
17879;DHT22;9065;51.050;13.758;2022-11-09T03:19:07;10.40;99.90
17879;DHT22;9065;51.050;13.758;2022-11-09T03:21:34;10.30;99.90
17879;DHT22;9065;51.050;13.758;2022-11-09T03:24:01;10.30;99.90
17879;DHT22;9065;51.050;13.758;2022-11-09T03:26:29;10.30;99.90
17879;DHT22;9065;51.050;13.758;2022-11-09T03:28:55;10.20;99.90
17879;DHT22;9065;51.050;13.758;2022-11-09T03:31:25;10.20;99.90
17879;DHT22;9065;51.050;13.758;2022-11-09T03:33:51;10.20;99.90
17879;DHT22;9065;51.050;13.758;2022-11-09T03:36:19;10.20;99.90
17879;DHT22;9065;51.050;13.758;2022-11-09T03:38:46;10.20;99.90
17879;DHT22;9065;51.050;13.758;2022-11-09T03:41:13;10.20;99.90
17879;DHT22;9065;51.050;13.758;2022-11-09T03:43:40;10.30;99.90
17879;DHT22;9065;51.050;13.758;2022-11-09T03:46:06;10.30;99.90
17879;DHT22;9065;51.050;13.758;2022-11-09T03:48:34;10.20;99.90
17879;DHT22;9065;51.050;13.758;2022-11-09T03:51:01;10.20;99.90
17879;DHT22;9065;51.050;13.758;2022-11-09T03:53:29;10.20;99.90
17879;DHT22;9065;51.050;13.758;2022-11-09T03:55:56;10.20;99.90
17879;DHT22;9065;51.050;13.758;2022-11-09T03:58:24;10.20;99.90
17879;DHT22;9065;51.050;13.758;2022-11-09T04:00:58;10.10;99.90
17879;DHT22;9065;51.050;13.758;2022-11-09T04:03:27;10.10;99.90
17879;DHT22;9065;51.050;13.758;2022-11-09T04:05:57;10.10;99.90
17879;DHT22;9065;51.050;13.758;2022-11-09T04:08:23;10.10;99.90
17879;DHT22;9065;51.050;13.758;2022-11-09T04:10:50;10.10;99.90
17879;DHT22;9065;51.050;13.758;2022-11-09T04:13:18;10.10;99.90
17879;DHT22;9065;51.050;13.758;2022-11-09T04:15:44;10.10;99.90
17879;DHT22;9065;51.050;13.758;2022-11-09T04:18:13;10.10;99.90
17879;DHT22;9065;51.050;13.758;2022-11-09T04:20:41;10.10;99.90
17879;DHT22;9065;51.050;13.758;2022-11-09T04:23:11;10.10;99.90
17879;DHT22;9065;51.050;13.758;2022-11-09T04:25:44;10.00;99.90
17879;DHT22;9065;51.050;13.758;2022-11-09T04:28:12;10.00;99.90
17879;DHT22;9065;51.050;13.758;2022-11-09T04:30:40;10.00;99.90
17879;DHT22;9065;51.050;13.758;2022-11-09T04:33:13;10.00;99.90
17879;DHT22;9065;51.050;13.758;2022-11-09T04:35:40;9.90;99.90
17879;DHT22;9065;51.050;13.758;2022-11-09T04:38:12;9.90;99.90
17879;DHT22;9065;51.050;13.758;2022-11-09T04:40:39;10.00;99.90
17879;DHT22;9065;51.050;13.758;2022-11-09T04:43:11;9.90;99.90
17879;DHT22;9065;51.050;13.758;2022-11-09T04:45:38;10.00;99.90
17879;DHT22;9065;51.050;13.758;2022-11-09T04:48:06;10.00;99.90
17879;DHT22;9065;51.050;13.758;2022-11-09T04:50:35;10.00;99.90
17879;DHT22;9065;51.050;13.758;2022-11-09T04:53:07;10.10;99.90
17879;DHT22;9065;51.050;13.758;2022-11-09T04:55:36;10.00;99.90
17879;DHT22;9065;51.050;13.758;2022-11-09T04:58:09;10.10;99.90
17879;DHT22;9065;51.050;13.758;2022-11-09T05:00:36;10.10;99.90
17879;DHT22;9065;51.050;13.758;2022-11-09T05:03:05;10.10;99.90
17879;DHT22;9065;51.050;13.758;2022-11-09T05:05:32;10.10;99.90
17879;DHT22;9065;51.050;13.758;2022-11-09T05:08:00;10.10;99.90
17879;DHT22;9065;51.050;13.758;2022-11-09T05:10:28;10.10;99.90
17879;DHT22;9065;51.050;13.758;2022-11-09T05:13:00;10.10;99.90
17879;DHT22;9065;51.050;13.758;2022-11-09T05:15:30;10.10;99.90
17879;DHT22;9065;51.050;13.758;2022-11-09T05:17:58;10.20;99.90
17879;DHT22;9065;51.050;13.758;2022-11-09T05:20:35;10.20;99.90
17879;DHT22;9065;51.050;13.758;2022-11-09T05:23:03;10.20;99.90
17879;DHT22;9065;51.050;13.758;2022-11-09T05:25:48;10.20;99.90
17879;DHT22;9065;51.050;13.758;2022-11-09T05:28:24;10.20;99.90
17879;DHT22;9065;51.050;13.758;2022-11-09T05:30:53;10.20;99.90
17879;DHT22;9065;51.050;13.758;2022-11-09T05:33:20;10.20;99.90
17879;DHT22;9065;51.050;13.758;2022-11-09T05:35:46;10.20;99.90
17879;DHT22;9065;51.050;13.758;2022-11-09T05:38:14;10.30;99.90
17879;DHT22;9065;51.050;13.758;2022-11-09T05:40:42;10.30;99.90
17879;DHT22;9065;51.050;13.758;2022-11-09T05:43:11;10.30;99.90
17879;DHT22;9065;51.050;13.758;2022-11-09T05:45:40;10.40;99.90
17879;DHT22;9065;51.050;13.758;2022-11-09T05:48:07;10.40;99.90
17879;DHT22;9065;51.050;13.758;2022-11-09T05:50:35;10.40;99.90
17879;DHT22;9065;51.050;13.758;2022-11-09T05:53:02;10.30;99.90
17879;DHT22;9065;51.050;13.758;2022-11-09T05:55:29;10.30;99.90
17879;DHT22;9065;51.050;13.758;2022-11-09T05:57:56;10.30;99.90
17879;DHT22;9065;51.050;13.758;2022-11-09T06:00:23;10.40;99.90
17879;DHT22;9065;51.050;13.758;2022-11-09T06:03:02;10.40;99.90
17879;DHT22;9065;51.050;13.758;2022-11-09T06:05:31;10.40;99.90
17879;DHT22;9065;51.050;13.758;2022-11-09T06:08:01;10.40;99.90
17879;DHT22;9065;51.050;13.758;2022-11-09T06:10:30;10.40;99.90
17879;DHT22;9065;51.050;13.758;2022-11-09T06:12:59;10.50;99.90
17879;DHT22;9065;51.050;13.758;2022-11-09T06:15:26;10.40;99.90
17879;DHT22;9065;51.050;13.758;2022-11-09T06:17:56;10.40;99.90
17879;DHT22;9065;51.050;13.758;2022-11-09T06:20:26;10.50;99.90
17879;DHT22;9065;51.050;13.758;2022-11-09T06:22:54;10.40;99.90
17879;DHT22;9065;51.050;13.758;2022-11-09T06:25:22;10.40;99.90
17879;DHT22;9065;51.050;13.758;2022-11-09T06:27:49;10.40;99.90
17879;DHT22;9065;51.050;13.758;2022-11-09T06:30:16;10.40;99.90
17879;DHT22;9065;51.050;13.758;2022-11-09T06:32:43;10.40;99.90
17879;DHT22;9065;51.050;13.758;2022-11-09T06:35:10;10.40;99.90
17879;DHT22;9065;51.050;13.758;2022-11-09T06:37:39;10.50;99.90
17879;DHT22;9065;51.050;13.758;2022-11-09T06:40:07;10.50;99.90
17879;DHT22;9065;51.050;13.758;2022-11-09T06:42:35;10.50;99.90
17879;DHT22;9065;51.050;13.758;2022-11-09T06:45:04;10.50;99.90
17879;DHT22;9065;51.050;13.758;2022-11-09T06:47:32;10.50;99.90
17879;DHT22;9065;51.050;13.758;2022-11-09T06:50:00;10.50;99.90
17879;DHT22;9065;51.050;13.758;2022-11-09T06:52:27;10.50;99.90
17879;DHT22;9065;51.050;13.758;2022-11-09T06:54:56;10.40;99.90
17879;DHT22;9065;51.050;13.758;2022-11-09T06:57:29;10.50;99.90
17879;DHT22;9065;51.050;13.758;2022-11-09T06:59:58;10.50;99.90
17879;DHT22;9065;51.050;13.758;2022-11-09T07:02:27;10.50;99.90
17879;DHT22;9065;51.050;13.758;2022-11-09T07:04:57;10.60;99.90
17879;DHT22;9065;51.050;13.758;2022-11-09T07:07:25;10.60;99.90
17879;DHT22;9065;51.050;13.758;2022-11-09T07:09:52;10.60;99.90
17879;DHT22;9065;51.050;13.758;2022-11-09T07:12:31;10.60;99.90
17879;DHT22;9065;51.050;13.758;2022-11-09T07:14:59;10.60;99.90
17879;DHT22;9065;51.050;13.758;2022-11-09T07:17:29;10.50;99.90
17879;DHT22;9065;51.050;13.758;2022-11-09T07:19:56;10.60;99.90
17879;DHT22;9065;51.050;13.758;2022-11-09T07:22:24;10.60;99.90
17879;DHT22;9065;51.050;13.758;2022-11-09T07:24:53;10.60;99.90
17879;DHT22;9065;51.050;13.758;2022-11-09T07:27:22;10.70;99.90
17879;DHT22;9065;51.050;13.758;2022-11-09T07:29:53;10.70;99.90
17879;DHT22;9065;51.050;13.758;2022-11-09T07:32:24;10.70;99.90
17879;DHT22;9065;51.050;13.758;2022-11-09T07:34:51;10.80;99.90
17879;DHT22;9065;51.050;13.758;2022-11-09T07:37:25;10.90;99.90
17879;DHT22;9065;51.050;13.758;2022-11-09T07:39:53;10.90;99.90
17879;DHT22;9065;51.050;13.758;2022-11-09T07:42:19;11.00;99.90
17879;DHT22;9065;51.050;13.758;2022-11-09T07:44:47;11.00;99.90
17879;DHT22;9065;51.050;13.758;2022-11-09T07:47:16;11.10;99.90
17879;DHT22;9065;51.050;13.758;2022-11-09T07:49:49;11.10;99.90
17879;DHT22;9065;51.050;13.758;2022-11-09T07:52:19;11.10;99.90
17879;DHT22;9065;51.050;13.758;2022-11-09T07:54:45;11.10;99.90
17879;DHT22;9065;51.050;13.758;2022-11-09T07:57:14;11.10;99.90
17879;DHT22;9065;51.050;13.758;2022-11-09T07:59:41;11.10;99.90
17879;DHT22;9065;51.050;13.758;2022-11-09T08:02:09;11.00;99.90
17879;DHT22;9065;51.050;13.758;2022-11-09T08:04:41;11.00;99.90
17879;DHT22;9065;51.050;13.758;2022-11-09T08:07:08;11.00;99.90
17879;DHT22;9065;51.050;13.758;2022-11-09T08:09:36;10.90;99.90
17879;DHT22;9065;51.050;13.758;2022-11-09T08:12:04;10.90;99.90
17879;DHT22;9065;51.050;13.758;2022-11-09T08:14:32;10.90;99.90
17879;DHT22;9065;51.050;13.758;2022-11-09T08:17:01;10.90;99.90
17879;DHT22;9065;51.050;13.758;2022-11-09T08:19:28;10.80;99.90
17879;DHT22;9065;51.050;13.758;2022-11-09T08:22:20;11.00;99.90
17879;DHT22;9065;51.050;13.758;2022-11-09T08:24:47;11.00;99.90
17879;DHT22;9065;51.050;13.758;2022-11-09T08:27:14;11.00;99.90
17879;DHT22;9065;51.050;13.758;2022-11-09T08:29:41;11.10;99.90
17879;DHT22;9065;51.050;13.758;2022-11-09T08:32:08;11.10;99.90
17879;DHT22;9065;51.050;13.758;2022-11-09T08:34:35;11.10;99.90
17879;DHT22;9065;51.050;13.758;2022-11-09T08:37:02;11.10;99.90
17879;DHT22;9065;51.050;13.758;2022-11-09T08:39:31;11.10;99.90
17879;DHT22;9065;51.050;13.758;2022-11-09T08:41:58;11.10;99.90
17879;DHT22;9065;51.050;13.758;2022-11-09T08:44:27;11.10;99.90
17879;DHT22;9065;51.050;13.758;2022-11-09T08:46:54;11.10;99.90
17879;DHT22;9065;51.050;13.758;2022-11-09T08:49:21;11.10;99.90
17879;DHT22;9065;51.050;13.758;2022-11-09T08:51:47;11.10;99.90
17879;DHT22;9065;51.050;13.758;2022-11-09T08:54:23;11.10;99.90
17879;DHT22;9065;51.050;13.758;2022-11-09T08:56:53;11.20;99.90
17879;DHT22;9065;51.050;13.758;2022-11-09T08:59:22;11.20;99.90
17879;DHT22;9065;51.050;13.758;2022-11-09T09:01:49;11.20;99.90
17879;DHT22;9065;51.050;13.758;2022-11-09T09:04:18;11.30;99.90
17879;DHT22;9065;51.050;13.758;2022-11-09T09:06:45;11.30;99.90
17879;DHT22;9065;51.050;13.758;2022-11-09T09:09:19;11.30;99.90
17879;DHT22;9065;51.050;13.758;2022-11-09T09:11:46;11.40;99.90
17879;DHT22;9065;51.050;13.758;2022-11-09T09:14:14;11.40;99.90
17879;DHT22;9065;51.050;13.758;2022-11-09T09:16:41;11.30;99.90
17879;DHT22;9065;51.050;13.758;2022-11-09T09:19:10;11.50;99.90
17879;DHT22;9065;51.050;13.758;2022-11-09T09:21:44;11.50;99.90
17879;DHT22;9065;51.050;13.758;2022-11-09T09:24:12;11.50;99.90
17879;DHT22;9065;51.050;13.758;2022-11-09T09:26:42;11.50;99.90
17879;DHT22;9065;51.050;13.758;2022-11-09T09:29:10;11.50;99.90
17879;DHT22;9065;51.050;13.758;2022-11-09T09:31:40;11.50;99.90
17879;DHT22;9065;51.050;13.758;2022-11-09T09:34:07;11.50;99.90
17879;DHT22;9065;51.050;13.758;2022-11-09T09:36:34;11.50;99.90
17879;DHT22;9065;51.050;13.758;2022-11-09T09:39:02;11.40;99.90
17879;DHT22;9065;51.050;13.758;2022-11-09T09:41:35;11.40;99.90
17879;DHT22;9065;51.050;13.758;2022-11-09T09:44:14;11.40;99.90
17879;DHT22;9065;51.050;13.758;2022-11-09T09:46:53;11.40;99.90
17879;DHT22;9065;51.050;13.758;2022-11-09T09:49:26;11.50;99.90
17879;DHT22;9065;51.050;13.758;2022-11-09T09:51:56;11.50;99.90
17879;DHT22;9065;51.050;13.758;2022-11-09T09:54:29;11.50;99.90
17879;DHT22;9065;51.050;13.758;2022-11-09T09:56:59;11.50;99.90
17879;DHT22;9065;51.050;13.758;2022-11-09T09:59:37;11.60;99.90
17879;DHT22;9065;51.050;13.758;2022-11-09T10:02:14;11.60;99.90
17879;DHT22;9065;51.050;13.758;2022-11-09T10:04:45;11.60;99.90
17879;DHT22;9065;51.050;13.758;2022-11-09T10:07:16;11.70;99.90
17879;DHT22;9065;51.050;13.758;2022-11-09T10:12:52;11.70;99.90
17879;DHT22;9065;51.050;13.758;2022-11-09T10:15:25;11.70;99.90
17879;DHT22;9065;51.050;13.758;2022-11-09T10:18:04;11.70;99.90
17879;DHT22;9065;51.050;13.758;2022-11-09T10:20:50;11.70;99.90
17879;DHT22;9065;51.050;13.758;2022-11-09T10:23:36;11.70;99.90
17879;DHT22;9065;51.050;13.758;2022-11-09T10:26:13;11.80;99.90
17879;DHT22;9065;51.050;13.758;2022-11-09T10:28:44;11.80;99.90
17879;DHT22;9065;51.050;13.758;2022-11-09T10:31:15;11.80;99.90
17879;DHT22;9065;51.050;13.758;2022-11-09T10:33:47;11.90;99.90
17879;DHT22;9065;51.050;13.758;2022-11-09T10:36:21;11.90;99.90
17879;DHT22;9065;51.050;13.758;2022-11-09T10:38:52;11.90;99.90
17879;DHT22;9065;51.050;13.758;2022-11-09T10:41:30;11.90;99.90
17879;DHT22;9065;51.050;13.758;2022-11-09T10:44:01;11.90;99.90
17879;DHT22;9065;51.050;13.758;2022-11-09T10:46:28;11.90;99.90
17879;DHT22;9065;51.050;13.758;2022-11-09T10:48:56;11.80;99.90
17879;DHT22;9065;51.050;13.758;2022-11-09T10:51:44;11.80;99.90
17879;DHT22;9065;51.050;13.758;2022-11-09T10:54:22;11.90;99.90
17879;DHT22;9065;51.050;13.758;2022-11-09T10:57:00;11.80;99.90
17879;DHT22;9065;51.050;13.758;2022-11-09T10:59:42;11.90;99.90
17879;DHT22;9065;51.050;13.758;2022-11-09T11:02:38;11.90;99.90
17879;DHT22;9065;51.050;13.758;2022-11-09T11:05:35;11.80;99.90
17879;DHT22;9065;51.050;13.758;2022-11-09T11:08:25;11.90;99.90
17879;DHT22;9065;51.050;13.758;2022-11-09T11:11:16;11.90;99.90
17879;DHT22;9065;51.050;13.758;2022-11-09T11:13:44;11.80;99.90
17879;DHT22;9065;51.050;13.758;2022-11-09T11:16:24;11.80;99.90
17879;DHT22;9065;51.050;13.758;2022-11-09T11:18:52;11.80;99.90
17879;DHT22;9065;51.050;13.758;2022-11-09T11:21:23;11.80;99.90
17879;DHT22;9065;51.050;13.758;2022-11-09T11:24:11;11.70;99.90
17879;DHT22;9065;51.050;13.758;2022-11-09T11:26:47;11.80;99.90
17879;DHT22;9065;51.050;13.758;2022-11-09T11:29:31;11.80;99.90
17879;DHT22;9065;51.050;13.758;2022-11-09T11:32:01;11.80;99.90
17879;DHT22;9065;51.050;13.758;2022-11-09T11:34:29;11.80;99.90
17879;DHT22;9065;51.050;13.758;2022-11-09T11:37:08;11.90;99.90
17879;DHT22;9065;51.050;13.758;2022-11-09T11:39:55;12.00;99.90
17879;DHT22;9065;51.050;13.758;2022-11-09T11:42:47;12.10;99.90
17879;DHT22;9065;51.050;13.758;2022-11-09T11:45:20;12.30;99.90
17879;DHT22;9065;51.050;13.758;2022-11-09T11:47:55;12.30;99.90
17879;DHT22;9065;51.050;13.758;2022-11-09T11:50:32;12.20;99.90
17879;DHT22;9065;51.050;13.758;2022-11-09T11:53:16;12.30;99.90
17879;DHT22;9065;51.050;13.758;2022-11-09T11:58:58;12.30;99.90
17879;DHT22;9065;51.050;13.758;2022-11-09T12:01:41;12.30;99.90
17879;DHT22;9065;51.050;13.758;2022-11-09T12:04:28;12.40;99.90
17879;DHT22;9065;51.050;13.758;2022-11-09T12:07:14;12.40;99.90
17879;DHT22;9065;51.050;13.758;2022-11-09T12:10:20;12.40;99.90
17879;DHT22;9065;51.050;13.758;2022-11-09T12:13:01;12.50;99.90
17879;DHT22;9065;51.050;13.758;2022-11-09T12:15:42;12.50;99.90
17879;DHT22;9065;51.050;13.758;2022-11-09T12:18:32;12.40;99.90
17879;DHT22;9065;51.050;13.758;2022-11-09T12:21:12;12.40;99.90
17879;DHT22;9065;51.050;13.758;2022-11-09T12:24:13;12.40;99.90
17879;DHT22;9065;51.050;13.758;2022-11-09T12:27:06;12.30;99.90
17879;DHT22;9065;51.050;13.758;2022-11-09T12:29:43;12.30;99.90
17879;DHT22;9065;51.050;13.758;2022-11-09T12:32:21;12.30;99.90
17879;DHT22;9065;51.050;13.758;2022-11-09T12:34:53;12.20;99.90
17879;DHT22;9065;51.050;13.758;2022-11-09T12:37:26;12.30;99.90
17879;DHT22;9065;51.050;13.758;2022-11-09T12:40:06;12.10;99.90
17879;DHT22;9065;51.050;13.758;2022-11-09T12:42:50;12.00;99.90
17879;DHT22;9065;51.050;13.758;2022-11-09T12:45:23;12.00;99.90
17879;DHT22;9065;51.050;13.758;2022-11-09T12:47:52;11.90;99.90
17879;DHT22;9065;51.050;13.758;2022-11-09T12:50:24;11.90;99.90
17879;DHT22;9065;51.050;13.758;2022-11-09T12:52:55;11.90;99.90
17879;DHT22;9065;51.050;13.758;2022-11-09T12:55:28;11.90;99.90
17879;DHT22;9065;51.050;13.758;2022-11-09T12:57:59;11.80;99.90
17879;DHT22;9065;51.050;13.758;2022-11-09T13:00:47;11.80;99.90
17879;DHT22;9065;51.050;13.758;2022-11-09T13:03:19;11.80;99.90
17879;DHT22;9065;51.050;13.758;2022-11-09T13:06:13;11.80;99.90
17879;DHT22;9065;51.050;13.758;2022-11-09T13:08:43;11.90;99.90
17879;DHT22;9065;51.050;13.758;2022-11-09T13:11:20;11.90;99.90
17879;DHT22;9065;51.050;13.758;2022-11-09T13:13:51;11.90;99.90
17879;DHT22;9065;51.050;13.758;2022-11-09T13:16:38;12.00;99.90
17879;DHT22;9065;51.050;13.758;2022-11-09T13:19:07;11.80;99.90
17879;DHT22;9065;51.050;13.758;2022-11-09T13:21:36;11.90;99.90
17879;DHT22;9065;51.050;13.758;2022-11-09T13:27:39;11.90;99.90
17879;DHT22;9065;51.050;13.758;2022-11-09T13:30:37;12.00;99.90
17879;DHT22;9065;51.050;13.758;2022-11-09T13:33:17;12.00;99.90
17879;DHT22;9065;51.050;13.758;2022-11-09T13:36:14;12.10;99.90
17879;DHT22;9065;51.050;13.758;2022-11-09T13:41:42;12.10;99.90
17879;DHT22;9065;51.050;13.758;2022-11-09T13:44:19;12.00;99.90
17879;DHT22;9065;51.050;13.758;2022-11-09T13:46:48;11.90;99.90
17879;DHT22;9065;51.050;13.758;2022-11-09T13:49:44;11.90;99.90
17879;DHT22;9065;51.050;13.758;2022-11-09T13:52:40;12.00;99.90
17879;DHT22;9065;51.050;13.758;2022-11-09T13:55:25;12.00;99.90
17879;DHT22;9065;51.050;13.758;2022-11-09T13:58:03;12.00;99.90
17879;DHT22;9065;51.050;13.758;2022-11-09T14:00:30;12.00;99.90
17879;DHT22;9065;51.050;13.758;2022-11-09T14:03:00;11.90;99.90
17879;DHT22;9065;51.050;13.758;2022-11-09T14:05:34;11.90;99.90
17879;DHT22;9065;51.050;13.758;2022-11-09T14:08:04;11.90;99.90
17879;DHT22;9065;51.050;13.758;2022-11-09T14:10:45;11.80;99.90
17879;DHT22;9065;51.050;13.758;2022-11-09T14:13:39;11.80;99.90
17879;DHT22;9065;51.050;13.758;2022-11-09T14:16:15;11.70;99.90
17879;DHT22;9065;51.050;13.758;2022-11-09T14:19:02;11.70;99.90
17879;DHT22;9065;51.050;13.758;2022-11-09T14:21:39;11.70;99.90
17879;DHT22;9065;51.050;13.758;2022-11-09T14:24:15;11.70;99.90
17879;DHT22;9065;51.050;13.758;2022-11-09T14:27:03;11.70;99.90
17879;DHT22;9065;51.050;13.758;2022-11-09T14:29:30;11.70;99.90
17879;DHT22;9065;51.050;13.758;2022-11-09T14:31:59;11.70;99.90
17879;DHT22;9065;51.050;13.758;2022-11-09T14:34:29;11.60;99.90
17879;DHT22;9065;51.050;13.758;2022-11-09T14:36:56;11.60;99.90
17879;DHT22;9065;51.050;13.758;2022-11-09T14:39:26;11.50;99.90
17879;DHT22;9065;51.050;13.758;2022-11-09T14:41:54;11.50;99.90
17879;DHT22;9065;51.050;13.758;2022-11-09T14:44:27;11.50;99.90
17879;DHT22;9065;51.050;13.758;2022-11-09T14:47:03;11.50;99.90
17879;DHT22;9065;51.050;13.758;2022-11-09T14:49:39;11.50;99.90
17879;DHT22;9065;51.050;13.758;2022-11-09T14:52:09;11.40;99.90
17879;DHT22;9065;51.050;13.758;2022-11-09T14:54:39;11.40;99.90
17879;DHT22;9065;51.050;13.758;2022-11-09T14:57:10;11.40;99.90
17879;DHT22;9065;51.050;13.758;2022-11-09T14:59:41;11.30;99.90
17879;DHT22;9065;51.050;13.758;2022-11-09T15:02:11;11.30;99.90
17879;DHT22;9065;51.050;13.758;2022-11-09T15:04:58;11.20;99.90
17879;DHT22;9065;51.050;13.758;2022-11-09T15:07:29;11.20;99.90
17879;DHT22;9065;51.050;13.758;2022-11-09T15:09:59;11.30;99.90
17879;DHT22;9065;51.050;13.758;2022-11-09T15:12:27;11.20;99.90
17879;DHT22;9065;51.050;13.758;2022-11-09T15:15:05;11.20;99.90
17879;DHT22;9065;51.050;13.758;2022-11-09T15:17:45;11.10;99.90
17879;DHT22;9065;51.050;13.758;2022-11-09T15:20:29;11.10;99.90
17879;DHT22;9065;51.050;13.758;2022-11-09T15:23:00;11.10;99.90
17879;DHT22;9065;51.050;13.758;2022-11-09T15:25:30;11.00;99.90
17879;DHT22;9065;51.050;13.758;2022-11-09T15:31:13;11.00;99.90
17879;DHT22;9065;51.050;13.758;2022-11-09T15:33:47;10.90;99.90
17879;DHT22;9065;51.050;13.758;2022-11-09T15:36:31;10.90;99.90
17879;DHT22;9065;51.050;13.758;2022-11-09T15:39:05;10.90;99.90
17879;DHT22;9065;51.050;13.758;2022-11-09T15:41:35;10.90;99.90
17879;DHT22;9065;51.050;13.758;2022-11-09T15:44:04;10.80;99.90
17879;DHT22;9065;51.050;13.758;2022-11-09T15:46:33;10.80;99.90
17879;DHT22;9065;51.050;13.758;2022-11-09T15:49:13;10.80;99.90
17879;DHT22;9065;51.050;13.758;2022-11-09T15:51:43;10.70;99.90
17879;DHT22;9065;51.050;13.758;2022-11-09T15:54:11;10.70;99.90
17879;DHT22;9065;51.050;13.758;2022-11-09T15:56:39;10.70;99.90
17879;DHT22;9065;51.050;13.758;2022-11-09T15:59:15;10.70;99.90
17879;DHT22;9065;51.050;13.758;2022-11-09T16:01:43;10.70;99.90
17879;DHT22;9065;51.050;13.758;2022-11-09T16:04:11;10.70;99.90
17879;DHT22;9065;51.050;13.758;2022-11-09T16:06:40;10.70;99.90
17879;DHT22;9065;51.050;13.758;2022-11-09T16:09:15;10.70;99.90
17879;DHT22;9065;51.050;13.758;2022-11-09T16:11:42;10.70;99.90
17879;DHT22;9065;51.050;13.758;2022-11-09T16:14:10;10.70;99.90